createdAt,value
2019-01-25T00:00:40.865Z,1008.72
2019-01-25T00:01:40.857Z,1008.76
2019-01-25T00:02:40.839Z,1008.71
2019-01-25T00:03:40.829Z,1008.69
2019-01-25T00:04:40.847Z,1008.73
2019-01-25T00:05:40.815Z,1008.73
2019-01-25T00:06:40.806Z,1008.69
2019-01-25T00:07:40.781Z,1008.69
2019-01-25T00:08:40.772Z,1008.76
2019-01-25T00:09:40.783Z,1008.73
2019-01-25T00:10:40.758Z,1008.72
2019-01-25T00:11:40.760Z,1008.70
2019-01-25T00:12:40.746Z,1008.75
2019-01-25T00:13:40.738Z,1008.81
2019-01-25T00:14:40.760Z,1008.72
2019-01-25T00:15:40.692Z,1008.72
2019-01-25T00:16:40.681Z,1008.73
2019-01-25T00:17:40.677Z,1008.74
2019-01-25T00:18:40.663Z,1008.75
2019-01-25T00:19:40.683Z,1008.72
2019-01-25T00:20:40.647Z,1008.69
2019-01-25T00:21:40.635Z,1008.73
2019-01-25T00:22:40.683Z,1008.73
2019-01-25T00:23:40.611Z,1008.71
2019-01-25T00:24:40.625Z,1008.72
2019-01-25T00:25:40.589Z,1008.65
2019-01-25T00:26:40.578Z,1008.73
2019-01-25T00:27:40.573Z,1008.72
2019-01-25T00:28:40.591Z,1008.72
2019-01-25T00:29:40.595Z,1008.73
2019-01-25T00:30:40.536Z,1008.77
2019-01-25T00:31:40.524Z,1008.77
2019-01-25T00:32:40.518Z,1008.81
2019-01-25T00:33:40.506Z,1008.83
2019-01-25T00:34:40.490Z,1008.82
2019-01-25T00:35:40.495Z,1008.83
2019-01-25T00:36:40.503Z,1008.84
2019-01-25T00:37:40.505Z,1008.84
2019-01-25T00:38:40.444Z,1008.80
2019-01-25T00:39:40.434Z,1008.76
2019-01-25T00:40:42.005Z,1008.77
2019-01-25T00:41:40.441Z,1008.79
2019-01-25T00:42:40.403Z,1008.81
2019-01-25T00:43:40.423Z,1008.79
2019-01-25T00:44:40.381Z,1008.81
2019-01-25T00:45:40.382Z,1008.77
2019-01-25T00:46:40.371Z,1008.79
2019-01-25T00:47:40.356Z,1008.79
2019-01-25T00:48:40.378Z,1008.81
2019-01-25T00:49:40.320Z,1008.79
2019-01-25T00:50:40.341Z,1008.80
2019-01-25T00:51:40.342Z,1008.77
2019-01-25T00:52:40.288Z,1008.72
2019-01-25T00:53:40.284Z,1008.79
2019-01-25T00:54:40.282Z,1008.77
2019-01-25T00:55:40.278Z,1008.81
2019-01-25T00:56:40.246Z,1008.80
2019-01-25T00:57:40.259Z,1008.79
2019-01-25T00:58:40.224Z,1008.82
2019-01-25T00:59:40.223Z,1008.79
2019-01-25T01:00:40.230Z,1008.77
2019-01-25T01:01:41.110Z,1008.75
2019-01-25T01:02:40.182Z,1008.73
2019-01-25T01:03:40.170Z,1008.75
2019-01-25T01:04:40.161Z,1008.80
2019-01-25T01:05:40.179Z,1008.80
2019-01-25T01:06:40.138Z,1008.83
2019-01-25T01:07:40.135Z,1008.81
2019-01-25T01:08:40.120Z,1008.82
2019-01-25T01:09:40.105Z,1008.83
2019-01-25T01:10:40.096Z,1008.81
2019-01-25T01:11:40.102Z,1008.80
2019-01-25T01:12:40.070Z,1008.82
2019-01-25T01:13:40.067Z,1008.82
2019-01-25T01:14:40.049Z,1008.82
2019-01-25T01:15:40.043Z,1008.84
2019-01-25T01:16:40.046Z,1008.83
2019-01-25T01:17:40.037Z,1008.84
2019-01-25T01:18:40.009Z,1008.85
2019-01-25T01:19:40.002Z,1008.86
2019-01-25T01:20:39.982Z,1008.88
2019-01-25T01:21:40.008Z,1008.82
2019-01-25T01:22:39.965Z,1008.88
2019-01-25T01:23:39.994Z,1008.88
2019-01-25T01:24:39.951Z,1008.93
2019-01-25T01:25:39.929Z,1008.89
2019-01-25T01:26:39.941Z,1008.91
2019-01-25T01:27:39.939Z,1008.91
2019-01-25T01:28:39.911Z,1008.94
2019-01-25T01:29:39.887Z,1008.91
2019-01-25T01:30:39.874Z,1008.93
2019-01-25T01:31:39.886Z,1008.94
2019-01-25T01:32:39.851Z,1008.91
2019-01-25T01:33:39.842Z,1008.91
2019-01-25T01:34:39.842Z,1008.90
2019-01-25T01:35:39.816Z,1008.91
2019-01-25T01:36:39.839Z,1008.89
2019-01-25T01:37:39.810Z,1008.89
2019-01-25T01:38:39.785Z,1008.91
2019-01-25T01:39:39.788Z,1008.86
2019-01-25T01:40:39.761Z,1008.89
2019-01-25T01:41:39.776Z,1008.94
2019-01-25T01:42:39.775Z,1008.88
2019-01-25T01:43:39.737Z,1008.93
2019-01-25T01:44:39.724Z,1008.93
2019-01-25T01:45:39.706Z,1008.96
2019-01-25T01:46:39.738Z,1008.94
2019-01-25T01:47:39.724Z,1008.99
2019-01-25T01:48:39.681Z,1008.98
2019-01-25T01:49:39.684Z,1008.95
2019-01-25T01:50:39.654Z,1008.99
2019-01-25T01:51:39.646Z,1008.96
2019-01-25T01:52:39.680Z,1009.00
2019-01-25T01:53:39.628Z,1008.93
2019-01-25T01:54:39.608Z,1008.98
2019-01-25T01:55:39.602Z,1008.95
2019-01-25T01:56:39.622Z,1008.97
2019-01-25T01:57:39.612Z,1008.96
2019-01-25T01:58:39.568Z,1008.95
2019-01-25T01:59:39.566Z,1008.95
2019-01-25T02:00:39.564Z,1008.98
2019-01-25T02:01:39.542Z,1008.92
2019-01-25T02:02:39.542Z,1008.94
2019-01-25T02:03:39.513Z,1008.96
2019-01-25T02:04:39.561Z,1008.98
2019-01-25T02:05:39.493Z,1008.98
2019-01-25T02:06:39.483Z,1008.97
2019-01-25T02:07:39.490Z,1009.00
2019-01-25T02:08:39.494Z,1009.04
2019-01-25T02:09:39.447Z,1008.99
2019-01-25T02:10:39.435Z,1008.98
2019-01-25T02:11:39.430Z,1008.98
2019-01-25T02:12:39.434Z,1008.96
2019-01-25T02:13:39.403Z,1008.91
2019-01-25T02:14:39.397Z,1008.93
2019-01-25T02:15:39.388Z,1008.95
2019-01-25T02:16:39.399Z,1008.97
2019-01-25T02:17:39.402Z,1008.93
2019-01-25T02:18:39.344Z,1008.93
2019-01-25T02:19:39.336Z,1008.88
2019-01-25T02:20:39.347Z,1008.84
2019-01-25T02:21:39.322Z,1008.90
2019-01-25T02:22:39.323Z,1008.89
2019-01-25T02:23:39.296Z,1008.89
2019-01-25T02:24:39.295Z,1008.86
2019-01-25T02:25:39.265Z,1008.89
2019-01-25T02:26:39.259Z,1008.84
2019-01-25T02:27:39.370Z,1008.83
2019-01-25T02:28:39.266Z,1008.82
2019-01-25T02:29:39.243Z,1008.82
2019-01-25T02:30:39.251Z,1008.83
2019-01-25T02:31:39.208Z,1008.80
2019-01-25T02:32:39.463Z,1008.81
2019-01-25T02:33:39.186Z,1008.80
2019-01-25T02:34:39.186Z,1008.81
2019-01-25T02:35:39.185Z,1008.79
2019-01-25T02:36:39.151Z,1008.79
2019-01-25T02:37:39.173Z,1008.79
2019-01-25T02:38:39.438Z,1008.79
2019-01-25T02:39:39.122Z,1008.77
2019-01-25T02:40:39.472Z,1008.78
2019-01-25T02:41:39.154Z,1008.76
2019-01-25T02:42:39.105Z,1008.75
2019-01-25T02:43:39.097Z,1008.71
2019-01-25T02:44:39.069Z,1008.69
2019-01-25T02:45:39.052Z,1008.70
2019-01-25T02:46:39.045Z,1008.66
2019-01-25T02:47:39.033Z,1008.68
2019-01-25T02:48:39.033Z,1008.72
2019-01-25T02:49:39.016Z,1008.72
2019-01-25T02:50:38.999Z,1008.73
2019-01-25T02:51:38.985Z,1008.75
2019-01-25T02:52:38.970Z,1008.65
2019-01-25T02:53:38.981Z,1008.66
2019-01-25T02:54:38.961Z,1008.68
2019-01-25T02:55:38.960Z,1008.67
2019-01-25T02:56:38.940Z,1008.65
2019-01-25T02:57:38.920Z,1008.70
2019-01-25T02:58:38.932Z,1008.68
2019-01-25T02:59:38.921Z,1008.70
2019-01-25T03:00:38.888Z,1008.72
2019-01-25T03:01:38.873Z,1008.73
2019-01-25T03:02:38.868Z,1008.72
2019-01-25T03:03:38.881Z,1008.70
2019-01-25T03:04:38.840Z,1008.73
2019-01-25T03:05:38.834Z,1008.76
2019-01-25T03:06:38.822Z,1008.74
2019-01-25T03:07:38.814Z,1008.72
2019-01-25T03:08:38.819Z,1008.72
2019-01-25T03:09:38.790Z,1008.70
2019-01-25T03:10:46.829Z,1008.71
2019-01-25T03:11:39.768Z,1008.71
2019-01-25T03:12:38.752Z,1008.70
2019-01-25T03:13:38.771Z,1008.71
2019-01-25T03:14:38.748Z,1008.71
2019-01-25T03:15:38.721Z,1008.73
2019-01-25T03:16:38.717Z,1008.69
2019-01-25T03:17:38.702Z,1008.69
2019-01-25T03:18:38.726Z,1008.70
2019-01-25T03:19:38.681Z,1008.65
2019-01-25T03:20:38.679Z,1008.66
2019-01-25T03:21:38.656Z,1008.68
2019-01-25T03:22:38.644Z,1008.67
2019-01-25T03:23:38.636Z,1008.64
2019-01-25T03:24:38.640Z,1008.69
2019-01-25T03:25:38.614Z,1008.66
2019-01-25T03:26:38.599Z,1008.69
2019-01-25T03:27:38.593Z,1008.71
2019-01-25T03:28:38.583Z,1008.68
2019-01-25T03:29:38.590Z,1008.74
2019-01-25T03:30:38.580Z,1008.72
2019-01-25T03:31:38.559Z,1008.75
2019-01-25T03:32:38.538Z,1008.70
2019-01-25T03:33:38.528Z,1008.72
2019-01-25T03:34:38.532Z,1008.72
2019-01-25T03:35:38.504Z,1008.74
2019-01-25T03:36:38.494Z,1008.78
2019-01-25T03:37:38.490Z,1008.73
2019-01-25T03:38:38.520Z,1008.76
2019-01-25T03:39:38.488Z,1008.71
2019-01-25T03:40:38.454Z,1008.80
2019-01-25T03:41:38.438Z,1008.75
2019-01-25T03:42:38.436Z,1008.77
2019-01-25T03:43:38.420Z,1008.78
2019-01-25T03:44:38.478Z,1008.81
2019-01-25T03:45:38.400Z,1008.78
2019-01-25T03:46:38.386Z,1008.78
2019-01-25T03:47:38.375Z,1008.81
2019-01-25T03:48:38.368Z,1008.80
2019-01-25T03:49:38.348Z,1008.84
2019-01-25T03:50:38.370Z,1008.82
2019-01-25T03:51:38.332Z,1008.82
2019-01-25T03:52:38.316Z,1008.82
2019-01-25T03:53:38.306Z,1008.81
2019-01-25T03:54:38.298Z,1008.83
2019-01-25T03:55:38.311Z,1008.80
2019-01-25T03:56:38.282Z,1008.79
2019-01-25T03:57:38.310Z,1008.83
2019-01-25T03:58:38.250Z,1008.83
2019-01-25T03:59:38.242Z,1008.80
2019-01-25T04:00:38.251Z,1008.81
2019-01-25T04:01:38.213Z,1008.84
2019-01-25T04:02:38.212Z,1008.85
2019-01-25T04:03:38.198Z,1008.81
2019-01-25T04:04:38.207Z,1008.82
2019-01-25T04:05:38.208Z,1008.84
2019-01-25T04:06:38.172Z,1008.84
2019-01-25T04:07:38.159Z,1008.87
2019-01-25T04:08:38.158Z,1008.88
2019-01-25T04:09:38.126Z,1008.87
2019-01-25T04:10:38.154Z,1008.86
2019-01-25T04:11:38.113Z,1008.85
2019-01-25T04:12:38.099Z,1008.87
2019-01-25T04:13:38.084Z,1008.86
2019-01-25T04:14:38.082Z,1008.82
2019-01-25T04:15:38.092Z,1008.85
2019-01-25T04:16:38.053Z,1008.86
2019-01-25T04:17:38.061Z,1008.86
2019-01-25T04:18:38.032Z,1008.84
2019-01-25T04:19:38.021Z,1008.81
2019-01-25T04:20:38.085Z,1008.84
2019-01-25T04:21:38.007Z,1008.83
2019-01-25T04:22:37.984Z,1008.84
2019-01-25T04:23:37.975Z,1008.81
2019-01-25T04:24:37.969Z,1008.82
2019-01-25T04:25:37.977Z,1008.82
2019-01-25T04:26:37.947Z,1008.80
2019-01-25T04:27:37.932Z,1008.80
2019-01-25T04:28:37.923Z,1008.84
2019-01-25T04:29:37.909Z,1008.83
2019-01-25T04:30:37.956Z,1008.85
2019-01-25T04:31:37.890Z,1008.88
2019-01-25T04:32:37.875Z,1008.92
2019-01-25T04:33:37.867Z,1008.89
2019-01-25T04:34:37.867Z,1008.92
2019-01-25T04:35:37.880Z,1008.90
2019-01-25T04:36:37.877Z,1008.87
2019-01-25T04:37:37.828Z,1008.89
2019-01-25T04:38:37.833Z,1008.90
2019-01-25T04:39:37.804Z,1008.87
2019-01-25T04:40:37.797Z,1008.88
2019-01-25T04:41:37.800Z,1008.88
2019-01-25T04:42:37.769Z,1008.85
2019-01-25T04:43:37.760Z,1008.86
2019-01-25T04:44:37.752Z,1008.84
2019-01-25T04:45:37.730Z,1008.86
2019-01-25T04:46:37.742Z,1008.82
2019-01-25T04:47:37.719Z,1008.85
2019-01-25T04:48:37.704Z,1008.79
2019-01-25T04:49:37.701Z,1008.77
2019-01-25T04:50:37.699Z,1008.84
2019-01-25T04:51:37.689Z,1008.82
2019-01-25T04:52:37.663Z,1008.79
2019-01-25T04:53:37.646Z,1008.80
2019-01-25T04:54:37.643Z,1008.80
2019-01-25T04:55:37.628Z,1008.84
2019-01-25T04:56:37.636Z,1008.79
2019-01-25T04:57:37.603Z,1008.84
2019-01-25T04:58:37.603Z,1008.82
2019-01-25T04:59:37.587Z,1008.81
2019-01-25T05:00:37.571Z,1008.83
2019-01-25T05:01:37.575Z,1008.80
2019-01-25T05:02:37.559Z,1008.86
2019-01-25T05:03:37.545Z,1008.86
2019-01-25T05:04:37.532Z,1008.85
2019-01-25T05:05:37.573Z,1008.80
2019-01-25T05:06:37.522Z,1008.86
2019-01-25T05:07:37.509Z,1008.87
2019-01-25T05:08:37.483Z,1008.80
2019-01-25T05:09:37.469Z,1008.87
2019-01-25T05:10:37.466Z,1008.78
2019-01-25T05:11:37.480Z,1008.83
2019-01-25T05:12:37.469Z,1008.88
2019-01-25T05:13:37.438Z,1008.86
2019-01-25T05:14:37.416Z,1008.87
2019-01-25T05:15:37.414Z,1008.90
2019-01-25T05:16:37.417Z,1008.94
2019-01-25T05:17:37.388Z,1008.95
2019-01-25T05:18:37.385Z,1008.99
2019-01-25T05:19:37.364Z,1008.94
2019-01-25T05:20:37.351Z,1008.93
2019-01-25T05:21:37.393Z,1008.92
2019-01-25T05:22:37.334Z,1008.94
2019-01-25T05:23:37.320Z,1008.92
2019-01-25T05:24:37.307Z,1008.95
2019-01-25T05:25:37.293Z,1008.94
2019-01-25T05:26:37.316Z,1008.95
2019-01-25T05:27:37.283Z,1008.90
2019-01-25T05:28:37.261Z,1008.92
2019-01-25T05:29:37.258Z,1008.89
2019-01-25T05:30:37.237Z,1008.91
2019-01-25T05:31:37.226Z,1008.93
2019-01-25T05:32:37.264Z,1008.91
2019-01-25T05:33:37.207Z,1008.86
2019-01-25T05:34:37.194Z,1008.90
2019-01-25T05:35:37.187Z,1008.89
2019-01-25T05:36:37.175Z,1008.88
2019-01-25T05:37:37.184Z,1008.90
2019-01-25T05:38:37.154Z,1008.90
2019-01-25T05:39:37.145Z,1008.89
2019-01-25T05:40:37.133Z,1008.88
2019-01-25T05:41:37.119Z,1008.89
2019-01-25T05:42:37.126Z,1008.86
2019-01-25T05:43:37.101Z,1008.87
2019-01-25T05:44:37.085Z,1008.87
2019-01-25T05:45:37.075Z,1008.87
2019-01-25T05:46:37.058Z,1008.87
2019-01-25T05:47:37.088Z,1008.84
2019-01-25T05:48:37.040Z,1008.84
2019-01-25T05:49:37.045Z,1008.81
2019-01-25T05:50:37.026Z,1008.80
2019-01-25T05:51:37.010Z,1008.79
2019-01-25T05:52:36.999Z,1008.79
2019-01-25T05:53:36.996Z,1008.79
2019-01-25T05:54:36.980Z,1008.78
2019-01-25T05:55:36.968Z,1008.80
2019-01-25T05:56:36.964Z,1008.80
2019-01-25T05:57:36.943Z,1008.78
2019-01-25T05:58:36.958Z,1008.74
2019-01-25T05:59:36.918Z,1008.80
2019-01-25T06:00:36.916Z,1008.80
2019-01-25T06:01:36.901Z,1008.84
2019-01-25T06:02:36.892Z,1008.89
2019-01-25T06:03:36.892Z,1008.81
2019-01-25T06:04:36.866Z,1008.80
2019-01-25T06:05:36.856Z,1008.78
2019-01-25T06:06:36.852Z,1008.81
2019-01-25T06:07:36.842Z,1008.79
2019-01-25T06:08:43.622Z,1008.84
2019-01-25T06:09:37.814Z,1008.79
2019-01-25T06:10:36.799Z,1008.81
2019-01-25T06:11:36.794Z,1008.80
2019-01-25T06:12:36.796Z,1008.82
2019-01-25T06:13:36.788Z,1008.84
2019-01-25T06:14:36.780Z,1008.87
2019-01-25T06:15:36.798Z,1008.81
2019-01-25T06:16:36.736Z,1008.82
2019-01-25T06:17:36.725Z,1008.79
2019-01-25T06:18:36.747Z,1008.82
2019-01-25T06:19:37.138Z,1008.81
2019-01-25T06:20:36.707Z,1008.83
2019-01-25T06:21:36.688Z,1008.87
2019-01-25T06:22:36.670Z,1008.89
2019-01-25T06:23:36.690Z,1008.89
2019-01-25T06:24:36.678Z,1008.92
2019-01-25T06:25:36.678Z,1008.85
2019-01-25T06:26:36.633Z,1008.89
2019-01-25T06:27:36.615Z,1008.88
2019-01-25T06:28:36.602Z,1008.92
2019-01-25T06:29:36.614Z,1008.92
2019-01-25T06:30:36.584Z,1008.90
2019-01-25T06:31:36.576Z,1008.85
2019-01-25T06:32:36.562Z,1008.90
2019-01-25T06:33:36.554Z,1008.89
2019-01-25T06:34:36.568Z,1008.91
2019-01-25T06:35:36.531Z,1008.91
2019-01-25T06:36:36.513Z,1008.91
2019-01-25T06:37:36.500Z,1008.93
2019-01-25T06:38:36.491Z,1008.99
2019-01-25T06:39:36.523Z,1008.97
2019-01-25T06:40:36.474Z,1008.95
2019-01-25T06:41:43.796Z,1009.03
2019-01-25T06:42:37.447Z,1009.02
2019-01-25T06:43:36.449Z,1009.08
2019-01-25T06:44:36.443Z,1009.06
2019-01-25T06:45:36.418Z,1009.08
2019-01-25T06:46:36.413Z,1009.11
2019-01-25T06:47:36.416Z,1009.12
2019-01-25T06:48:36.382Z,1009.14
2019-01-25T06:49:36.406Z,1009.10
2019-01-25T06:50:36.367Z,1009.10
2019-01-25T06:51:36.348Z,1009.13
2019-01-25T06:52:36.342Z,1009.13
2019-01-25T06:53:36.331Z,1009.11
2019-01-25T06:54:36.323Z,1009.11
2019-01-25T06:55:36.328Z,1009.10
2019-01-25T06:56:36.298Z,1009.13
2019-01-25T06:57:36.289Z,1009.09
2019-01-25T06:58:36.272Z,1009.11
2019-01-25T06:59:36.264Z,1009.15
2019-01-25T07:00:36.280Z,1009.20
2019-01-25T07:01:36.250Z,1009.15
2019-01-25T07:02:36.229Z,1009.18
2019-01-25T07:03:36.226Z,1009.18
2019-01-25T07:04:36.206Z,1009.18
2019-01-25T07:05:36.224Z,1009.20
2019-01-25T07:06:36.196Z,1009.22
2019-01-25T07:07:36.202Z,1009.22
2019-01-25T07:08:36.167Z,1009.22
2019-01-25T07:09:36.165Z,1009.27
2019-01-25T07:10:36.167Z,1009.25
2019-01-25T07:11:42.039Z,1009.28
2019-01-25T07:12:37.122Z,1009.24
2019-01-25T07:13:36.109Z,1009.27
2019-01-25T07:14:36.097Z,1009.26
2019-01-25T07:15:36.104Z,1009.29
2019-01-25T07:16:36.097Z,1009.30
2019-01-25T07:17:36.079Z,1009.31
2019-01-25T07:18:36.062Z,1009.30
2019-01-25T07:19:36.053Z,1009.29
2019-01-25T07:20:36.047Z,1009.33
2019-01-25T07:21:36.028Z,1009.32
2019-01-25T07:22:36.013Z,1009.35
2019-01-25T07:23:36.001Z,1009.35
2019-01-25T07:24:36.006Z,1009.31
2019-01-25T07:25:36.009Z,1009.33
2019-01-25T07:26:35.970Z,1009.32
2019-01-25T07:27:35.959Z,1009.29
2019-01-25T07:28:35.946Z,1009.37
2019-01-25T07:29:35.936Z,1009.35
2019-01-25T07:30:35.960Z,1009.34
2019-01-25T07:31:35.914Z,1009.37
2019-01-25T07:32:35.920Z,1009.34
2019-01-25T07:33:35.892Z,1009.31
2019-01-25T07:34:35.885Z,1009.32
2019-01-25T07:35:35.889Z,1009.29
2019-01-25T07:36:35.889Z,1009.28
2019-01-25T07:37:35.852Z,1009.26
2019-01-25T07:38:35.872Z,1009.29
2019-01-25T07:39:35.839Z,1009.28
2019-01-25T07:40:35.833Z,1009.27
2019-01-25T07:41:35.833Z,1009.30
2019-01-25T07:42:35.796Z,1009.26
2019-01-25T07:43:35.783Z,1009.24
2019-01-25T07:44:35.768Z,1009.31
2019-01-25T07:45:35.825Z,1009.27
2019-01-25T07:46:35.792Z,1009.29
2019-01-25T07:47:35.792Z,1009.25
2019-01-25T07:48:35.756Z,1009.26
2019-01-25T07:49:35.718Z,1009.27
2019-01-25T07:50:35.723Z,1009.26
2019-01-25T07:51:35.709Z,1009.23
2019-01-25T07:52:35.688Z,1009.26
2019-01-25T07:53:35.701Z,1009.21
2019-01-25T07:54:35.668Z,1009.22
2019-01-25T07:55:35.684Z,1009.25
2019-01-25T07:56:35.687Z,1009.30
2019-01-25T07:57:35.657Z,1009.25
2019-01-25T07:58:35.625Z,1009.25
2019-01-25T07:59:35.649Z,1009.22
2019-01-25T08:00:35.618Z,1009.23
2019-01-25T08:01:35.624Z,1009.25
2019-01-25T08:02:35.572Z,1009.25
2019-01-25T08:03:35.584Z,1009.29
2019-01-25T08:04:35.609Z,1009.29
2019-01-25T08:05:35.546Z,1009.29
2019-01-25T08:06:35.550Z,1009.28
2019-01-25T08:07:35.517Z,1009.28
2019-01-25T08:08:35.511Z,1009.28
2019-01-25T08:09:35.515Z,1009.29
2019-01-25T08:10:35.500Z,1009.22
2019-01-25T08:11:35.561Z,1009.26
2019-01-25T08:12:35.478Z,1009.24
2019-01-25T08:13:35.495Z,1009.23
2019-01-25T08:14:35.463Z,1009.22
2019-01-25T08:15:35.437Z,1009.24
2019-01-25T08:16:35.469Z,1009.20
2019-01-25T08:17:35.511Z,1009.23
2019-01-25T08:18:35.418Z,1009.22
2019-01-25T08:19:35.386Z,1009.26
2019-01-25T08:20:35.428Z,1009.27
2019-01-25T08:21:36.168Z,1009.28
2019-01-25T08:22:35.372Z,1009.26
2019-01-25T08:23:35.392Z,1009.29
2019-01-25T08:24:35.550Z,1009.31
2019-01-25T08:25:35.548Z,1009.30
2019-01-25T08:26:35.428Z,1009.32
2019-01-25T08:27:35.333Z,1009.30
2019-01-25T08:28:35.338Z,1009.26
2019-01-25T08:29:35.279Z,1009.30
2019-01-25T08:30:35.267Z,1009.28
2019-01-25T08:31:35.482Z,1009.29
2019-01-25T08:32:35.265Z,1009.32
2019-01-25T08:33:35.235Z,1009.25
2019-01-25T08:34:35.258Z,1009.26
2019-01-25T08:35:35.216Z,1009.27
2019-01-25T08:36:35.203Z,1009.25
2019-01-25T08:37:35.217Z,1009.28
2019-01-25T08:38:35.200Z,1009.26
2019-01-25T08:39:35.202Z,1009.28
2019-01-25T08:40:35.200Z,1009.25
2019-01-25T08:41:35.158Z,1009.27
2019-01-25T08:42:35.179Z,1009.27
2019-01-25T08:43:35.249Z,1009.25
2019-01-25T08:44:35.118Z,1009.22
2019-01-25T08:45:35.341Z,1009.28
2019-01-25T08:46:35.125Z,1009.32
2019-01-25T08:47:35.111Z,1009.29
2019-01-25T08:48:35.117Z,1009.28
2019-01-25T08:49:35.058Z,1009.29
2019-01-25T08:50:35.321Z,1009.29
2019-01-25T08:51:35.137Z,1009.32
2019-01-25T08:52:35.141Z,1009.32
2019-01-25T08:53:35.016Z,1009.32
2019-01-25T08:54:35.015Z,1009.35
2019-01-25T08:55:35.002Z,1009.33
2019-01-25T08:56:35.000Z,1009.35
2019-01-25T08:57:35.018Z,1009.30
2019-01-25T08:58:35.956Z,1009.35
2019-01-25T08:59:34.947Z,1009.35
2019-01-25T09:00:34.936Z,1009.33
2019-01-25T09:01:34.926Z,1009.36
2019-01-25T09:02:34.939Z,1009.37
2019-01-25T09:03:34.908Z,1009.36
2019-01-25T09:04:34.905Z,1009.42
2019-01-25T09:05:34.882Z,1009.37
2019-01-25T09:06:34.872Z,1009.37
2019-01-25T09:07:34.887Z,1009.36
2019-01-25T09:08:34.851Z,1009.34
2019-01-25T09:09:34.833Z,1009.38
2019-01-25T09:10:34.829Z,1009.37
2019-01-25T09:11:34.855Z,1009.41
2019-01-25T09:12:34.813Z,1009.40
2019-01-25T09:13:34.812Z,1009.35
2019-01-25T09:14:34.794Z,1009.33
2019-01-25T09:15:34.773Z,1009.36
2019-01-25T09:16:34.774Z,1009.37
2019-01-25T09:17:34.761Z,1009.39
2019-01-25T09:18:34.775Z,1009.38
2019-01-25T09:19:34.729Z,1009.39
2019-01-25T09:20:34.739Z,1009.38
2019-01-25T09:21:34.723Z,1009.42
2019-01-25T09:22:34.700Z,1009.41
2019-01-25T09:23:34.733Z,1009.42
2019-01-25T09:24:34.675Z,1009.46
2019-01-25T09:25:34.669Z,1009.45
2019-01-25T09:26:34.650Z,1009.46
2019-01-25T09:27:34.639Z,1009.44
2019-01-25T09:28:34.641Z,1009.48
2019-01-25T09:29:34.622Z,1009.50
2019-01-25T09:30:34.623Z,1009.52
2019-01-25T09:31:34.595Z,1009.54
2019-01-25T09:32:34.583Z,1009.55
2019-01-25T09:33:34.635Z,1009.53
2019-01-25T09:34:34.563Z,1009.55
2019-01-25T09:35:34.557Z,1009.52
2019-01-25T09:36:34.543Z,1009.51
2019-01-25T09:37:34.529Z,1009.56
2019-01-25T09:38:34.530Z,1009.55
2019-01-25T09:39:34.510Z,1009.62
2019-01-25T09:40:34.503Z,1009.60
2019-01-25T09:41:34.487Z,1009.58
2019-01-25T09:42:34.511Z,1009.56
2019-01-25T09:43:34.483Z,1009.57
2019-01-25T09:44:34.447Z,1009.53
2019-01-25T09:45:34.448Z,1009.51
2019-01-25T09:46:34.427Z,1009.48
2019-01-25T09:47:34.423Z,1009.50
2019-01-25T09:48:34.460Z,1009.45
2019-01-25T09:49:34.397Z,1009.46
2019-01-25T09:50:34.412Z,1009.47
2019-01-25T09:51:34.381Z,1009.48
2019-01-25T09:52:34.416Z,1009.45
2019-01-25T09:53:34.432Z,1009.49
2019-01-25T09:54:34.384Z,1009.49
2019-01-25T09:55:34.335Z,1009.46
2019-01-25T09:56:34.350Z,1009.46
2019-01-25T09:57:34.331Z,1009.46
2019-01-25T09:58:34.298Z,1009.44
2019-01-25T09:59:34.317Z,1009.46
2019-01-25T10:00:34.278Z,1009.45
2019-01-25T10:01:34.276Z,1009.43
2019-01-25T10:02:34.260Z,1009.46
2019-01-25T10:03:34.246Z,1009.44
2019-01-25T10:04:34.289Z,1009.42
2019-01-25T10:05:34.223Z,1009.43
2019-01-25T10:06:34.218Z,1009.47
2019-01-25T10:07:34.207Z,1009.42
2019-01-25T10:08:34.201Z,1009.43
2019-01-25T10:09:34.198Z,1009.41
2019-01-25T10:10:34.177Z,1009.39
2019-01-25T10:11:34.193Z,1009.40
2019-01-25T10:12:38.821Z,1009.34
2019-01-25T10:13:35.181Z,1009.31
2019-01-25T10:14:34.151Z,1009.34
2019-01-25T10:15:34.128Z,1009.29
2019-01-25T10:16:34.206Z,1009.25
2019-01-25T10:17:34.207Z,1009.26
2019-01-25T10:18:34.087Z,1009.22
2019-01-25T10:19:34.090Z,1009.23
2019-01-25T10:20:34.079Z,1009.17
2019-01-25T10:21:34.047Z,1009.21
2019-01-25T10:22:34.041Z,1009.25
2019-01-25T10:23:39.072Z,1009.25
2019-01-25T10:24:35.042Z,1009.24
2019-01-25T10:25:34.018Z,1009.24
2019-01-25T10:26:34.002Z,1009.19
2019-01-25T10:27:33.982Z,1009.20
2019-01-25T10:28:33.984Z,1009.21
2019-01-25T10:29:34.012Z,1009.16
2019-01-25T10:30:33.967Z,1009.18
2019-01-25T10:31:33.943Z,1009.14
2019-01-25T10:32:33.942Z,1009.15
2019-01-25T10:33:33.923Z,1009.16
2019-01-25T10:34:33.907Z,1009.18
2019-01-25T10:35:33.907Z,1009.16
2019-01-25T10:36:33.894Z,1009.16
2019-01-25T10:37:33.881Z,1009.14
2019-01-25T10:38:33.856Z,1009.07
2019-01-25T10:39:33.848Z,1009.12
2019-01-25T10:40:33.879Z,1009.11
2019-01-25T10:41:33.834Z,1009.08
2019-01-25T10:42:33.864Z,1009.12
2019-01-25T10:43:33.841Z,1009.14
2019-01-25T10:44:33.798Z,1009.12
2019-01-25T10:45:33.810Z,1009.17
2019-01-25T10:46:33.778Z,1009.07
2019-01-25T10:47:33.764Z,1009.09
2019-01-25T10:48:33.791Z,1009.15
2019-01-25T10:49:33.738Z,1009.07
2019-01-25T10:50:33.748Z,1009.11
2019-01-25T10:51:33.718Z,1009.18
2019-01-25T10:52:33.711Z,1009.15
2019-01-25T10:53:33.700Z,1009.22
2019-01-25T10:54:33.696Z,1009.21
2019-01-25T10:55:33.704Z,1009.23
2019-01-25T10:56:33.673Z,1009.16
2019-01-25T10:57:33.660Z,1009.13
2019-01-25T10:58:33.643Z,1009.13
2019-01-25T10:59:33.627Z,1009.15
2019-01-25T11:00:33.638Z,1009.17
2019-01-25T11:01:33.608Z,1009.13
2019-01-25T11:02:33.603Z,1009.13
2019-01-25T11:03:33.592Z,1009.13
2019-01-25T11:04:33.590Z,1009.13
2019-01-25T11:05:33.580Z,1009.16
2019-01-25T11:06:33.556Z,1009.09
2019-01-25T11:07:33.556Z,1009.10
2019-01-25T11:08:33.533Z,1009.09
2019-01-25T11:09:37.942Z,1009.05
2019-01-25T11:10:33.573Z,1009.05
2019-01-25T11:11:33.498Z,1009.04
2019-01-25T11:12:33.508Z,1009.04
2019-01-25T11:13:33.478Z,1009.04
2019-01-25T11:14:33.472Z,1009.00
2019-01-25T11:15:33.489Z,1008.98
2019-01-25T11:16:33.444Z,1008.99
2019-01-25T11:17:36.456Z,1008.94
2019-01-25T11:18:33.430Z,1008.95
2019-01-25T11:19:33.415Z,1008.92
2019-01-25T11:20:33.414Z,1008.95
2019-01-25T11:21:37.418Z,1008.95
2019-01-25T11:22:33.379Z,1008.94
2019-01-25T11:23:33.386Z,1008.97
2019-01-25T11:24:33.381Z,1009.02
2019-01-25T11:25:33.346Z,1008.97
2019-01-25T11:26:33.360Z,1008.90
2019-01-25T11:27:33.326Z,1008.99
2019-01-25T11:28:33.315Z,1008.93
2019-01-25T11:29:33.314Z,1008.94
2019-01-25T11:30:33.297Z,1008.88
2019-01-25T11:31:33.475Z,1008.91
2019-01-25T11:32:33.270Z,1008.91
2019-01-25T11:33:33.262Z,1008.92
2019-01-25T11:34:33.254Z,1008.95
2019-01-25T11:35:33.267Z,1008.91
2019-01-25T11:36:33.260Z,1008.90
2019-01-25T11:37:33.210Z,1008.88
2019-01-25T11:38:33.208Z,1008.84
2019-01-25T11:39:33.196Z,1008.88
2019-01-25T11:40:33.196Z,1008.92
2019-01-25T11:41:33.182Z,1008.91
2019-01-25T11:42:33.180Z,1008.89
2019-01-25T11:43:33.153Z,1008.83
2019-01-25T11:44:33.147Z,1008.86
2019-01-25T11:45:33.126Z,1008.83
2019-01-25T11:46:33.115Z,1008.84
2019-01-25T11:47:33.114Z,1008.87
2019-01-25T11:48:33.106Z,1008.88
2019-01-25T11:49:33.083Z,1008.89
2019-01-25T11:50:33.095Z,1008.93
2019-01-25T11:51:33.061Z,1008.89
2019-01-25T11:52:33.066Z,1008.85
2019-01-25T11:53:33.031Z,1008.83
2019-01-25T11:54:33.027Z,1008.88
2019-01-25T11:55:33.024Z,1008.86
2019-01-25T11:56:32.999Z,1008.80
2019-01-25T11:57:33.007Z,1008.82
2019-01-25T11:58:32.979Z,1008.82
2019-01-25T11:59:32.967Z,1008.80
2019-01-25T12:00:32.957Z,1008.81
2019-01-25T12:01:32.967Z,1008.78
2019-01-25T12:02:32.954Z,1008.75
2019-01-25T12:03:32.927Z,1008.79
2019-01-25T12:04:32.907Z,1008.80
2019-01-25T12:05:32.899Z,1008.76